Grande Europa — ICGE — position and weather

sailwx.info

Track history (hours):
 
Tides and Currents Weather Stations Pressure Air Temp Water Temp Dewpoint Dewpoint Depression Visibility Wind Speed Wind Dir Waves Ship Positions

Grande Europa

Last reported at 2016-Oct-01 04:33 UTC. Time now 2016-Oct-01 10:17 UTC.
Position N 51°30' W 002°43'.

Length 183 m; draft 8.1 m.

Type: Cargo ship. MMSI: 247206000.

Date/timePositionNaut miles runAvg speedWind from/ knotsBaromVisibWave heightAir tempDewpointWater temp
2016-Oct-01 04:33N 51°30' W 002°43'0 0.0
2016-Oct-01 03:34N 51°30' W 002°43'0 0.0
2016-Oct-01 00:34N 51°30' W 002°43'0 0.0
2016-Sep-30 22:34N 51°30' W 002°43'0 0.2
2016-Sep-30 20:34N 51°30' W 002°43'4213.3
2016-Sep-30 17:24N 51°20' W 003°49'8 8.9
2016-Sep-30 16:33N 51°19' W 004°01'3919.6
2016-Sep-30 14:34N 50°56' W 004°51'2019.7
2016-Sep-30 13:34N 50°43' W 005°14'66918.0
2016-Sep-29 00:27N 40°03' W 009°51'5217.8
2016-Sep-28 21:33N 39°11' W 009°51'3417.1
2016-Sep-28 19:33N 38°37' W 009°49'4314.3
2016-Sep-28 16:33N 38°30' W 008°55'2 1.7
2016-Sep-28 15:33N 38°31' W 008°53'0 0.0
2016-Sep-28 12:33N 38°31' W 008°53'4110.2
2016-Sep-28 08:33N 37°52' W 009°09'7715.1
2016-Sep-28 03:28N 36°38' W 008°45'1718.5
2016-Sep-28 02:33N 36°33' W 008°25'2119.1
2016-Sep-28 01:29N 36°27' W 008°01'4019.4
2016-Sep-27 23:26N 36°14' W 007°14'24318.4
2016-Sep-27 10:12N 36°26' W 002°13'25318.6
2016-Sep-26 20:33N 39°28' E 001°30'1918.8
2016-Sep-26 19:32N 39°41' E 001°49'7418.6
2016-Sep-26 15:33N 40°30' E 003°01'25019.2
2016-Sep-26 02:33N 43°14' E 007°14'2019.6
2016-Sep-26 01:33N 43°26' E 007°35'2019.6
2016-Sep-26 00:33N 43°39' E 007°56'4715.6
2016-Sep-25 21:33N 44°19' E 008°30'0 0.0
2016-Sep-25 17:30N 44°19' E 008°30'0 0.0
2016-Sep-25 16:27N 44°19' E 008°30'1 1.3
2016-Sep-25 15:34N 44°18' E 008°31'1515.4
2016-Sep-25 14:33N 44°05' E 008°42'3919.3
2016-Sep-25 12:33N 43°32' E 009°10'1919.4
2016-Sep-25 11:33N 43°15' E 009°24'1919.3
2016-Sep-25 10:33N 42°59' E 009°38'  
Track history (hours):
 
Tides and Currents Weather Stations Pressure Air Temp Water Temp Dewpoint Dewpoint Depression Visibility Wind Speed Wind Dir Waves Ship Positions

Grande Europa

Last reported at 2016-Oct-01 04:33 UTC. Time now 2016-Oct-01 10:17 UTC.
Position N 51°30' W 002°43'.

Length 183 m; draft 8.1 m.

Type: Cargo ship. MMSI: 247206000.

Date/timePositionNaut miles runAvg speedWind from/ knotsBaromVisibWave heightAir tempDewpointWater temp
2016-Oct-01 04:33N 51°30' W 002°43'0 0.0
2016-Oct-01 03:34N 51°30' W 002°43'0 0.0
2016-Oct-01 00:34N 51°30' W 002°43'0 0.0
2016-Sep-30 22:34N 51°30' W 002°43'0 0.2
2016-Sep-30 20:34N 51°30' W 002°43'4213.3
2016-Sep-30 17:24N 51°20' W 003°49'8 8.9
2016-Sep-30 16:33N 51°19' W 004°01'3919.6
2016-Sep-30 14:34N 50°56' W 004°51'2019.7
2016-Sep-30 13:34N 50°43' W 005°14'66918.0
2016-Sep-29 00:27N 40°03' W 009°51'5217.8
2016-Sep-28 21:33N 39°11' W 009°51'3417.1
2016-Sep-28 19:33N 38°37' W 009°49'4314.3
2016-Sep-28 16:33N 38°30' W 008°55'2 1.7
2016-Sep-28 15:33N 38°31' W 008°53'0 0.0
2016-Sep-28 12:33N 38°31' W 008°53'4110.2
2016-Sep-28 08:33N 37°52' W 009°09'7715.1
2016-Sep-28 03:28N 36°38' W 008°45'1718.5
2016-Sep-28 02:33N 36°33' W 008°25'2119.1
2016-Sep-28 01:29N 36°27' W 008°01'4019.4
2016-Sep-27 23:26N 36°14' W 007°14'24318.4
2016-Sep-27 10:12N 36°26' W 002°13'25318.6
2016-Sep-26 20:33N 39°28' E 001°30'1918.8
2016-Sep-26 19:32N 39°41' E 001°49'7418.6
2016-Sep-26 15:33N 40°30' E 003°01'25019.2
2016-Sep-26 02:33N 43°14' E 007°14'2019.6
2016-Sep-26 01:33N 43°26' E 007°35'2019.6
2016-Sep-26 00:33N 43°39' E 007°56'4715.6
2016-Sep-25 21:33N 44°19' E 008°30'0 0.0
2016-Sep-25 17:30N 44°19' E 008°30'0 0.0
2016-Sep-25 16:27N 44°19' E 008°30'1 1.3
2016-Sep-25 15:34N 44°18' E 008°31'1515.4
2016-Sep-25 14:33N 44°05' E 008°42'3919.3
2016-Sep-25 12:33N 43°32' E 009°10'1919.4
2016-Sep-25 11:33N 43°15' E 009°24'1919.3
2016-Sep-25 10:33N 42°59' E 009°38'  

Dump ship's entire track history